Time;durP1;ratioP1;P1;durP2;ratioP2;P2;SDS_P1;SDS_P2;PMS_P1;PMS_P2;Temp;Humidity;BMP_temperature;BMP_pressure;BME280_temperature;BME280_humidity;BME280_pressure;Samples;Min_cycle;Max_cycle;Signal;HPM_P1;HPM_P2
2022/08/09 00:02:22;;;;;;;5.37;2.80;;;19.10;59.80;;;;;;5102436;28;20469;-50
2022/08/09 00:04:53;;;;;;;3.87;3.33;;;19.10;59.80;;;;;;5098189;29;20365;-50
2022/08/09 00:07:23;;;;;;;4.53;3.23;;;19.10;59.90;;;;;;5169007;28;20329;-51
2022/08/09 00:09:54;;;;;;;6.10;2.97;;;19.10;60.00;;;;;;5093626;29;20210;-51
2022/08/09 00:12:24;;;;;;;8.03;3.73;;;19.30;60.00;;;;;;5099365;29;20330;-51
2022/08/09 00:14:56;;;;;;;5.43;3.30;;;19.20;60.10;;;;;;5100923;28;20203;-51
2022/08/09 00:17:26;;;;;;;9.13;3.53;;;19.20;60.30;;;;;;5098409;29;20187;-50
2022/08/09 00:19:57;;;;;;;3.70;3.27;;;19.20;60.70;;;;;;5094901;28;20806;-50
2022/08/09 00:22:27;;;;;;;7.00;3.33;;;19.20;60.70;;;;;;5108690;28;20612;-52
2022/08/09 00:24:58;;;;;;;8.20;2.90;;;19.20;60.80;;;;;;5093375;29;20364;-50
2022/08/09 00:27:29;;;;;;;10.23;3.13;;;19.20;61.00;;;;;;5108925;29;20503;-51
2022/08/09 00:30:00;;;;;;;4.73;3.37;;;19.20;61.20;;;;;;5100030;28;20285;-51
2022/08/09 00:32:31;;;;;;;5.80;3.20;;;19.20;61.40;;;;;;5099931;29;20258;-50
2022/08/09 00:35:02;;;;;;;3.80;3.50;;;19.20;61.50;;;;;;5096181;28;20677;-51
2022/08/09 00:37:33;;;;;;;4.63;3.10;;;19.20;61.90;;;;;;5101878;28;20183;-49
2022/08/09 00:40:04;;;;;;;2.60;2.50;;;19.20;62.30;;;;;;5114354;28;20830;-51
2022/08/09 00:42:35;;;;;;;4.67;3.30;;;19.20;62.40;;;;;;5108857;28;20212;-50
2022/08/09 00:45:06;;;;;;;2.90;2.67;;;19.20;62.70;;;;;;5099608;29;20447;-49
2022/08/09 00:47:37;;;;;;;3.27;2.57;;;19.20;62.70;;;;;;5097901;29;20254;-49
2022/08/09 00:50:08;;;;;;;7.40;2.80;;;19.20;63.10;;;;;;5098706;29;21006;-50
2022/08/09 00:52:38;;;;;;;7.60;3.00;;;19.20;63.30;;;;;;5096638;28;20194;-50
2022/08/09 00:55:09;;;;;;;2.43;2.23;;;19.20;63.70;;;;;;5096309;29;20650;-50
2022/08/09 00:57:40;;;;;;;2.60;2.50;;;19.20;63.70;;;;;;5095463;28;20190;-50
2022/08/09 01:00:12;;;;;;;2.30;2.20;;;19.10;64.20;;;;;;5097065;29;20239;-48
2022/08/09 01:02:50;;;;;;;3.10;2.80;;;19.10;64.40;;;;;;5095294;29;20210;-49
2022/08/09 01:05:35;;;;;;;3.03;2.77;;;19.10;64.90;;;;;;5091283;28;20435;-49
2022/08/09 01:08:32;;;;;;;4.17;3.20;;;19.00;65.20;;;;;;5088900;28;20444;-48
2022/08/09 01:11:15;;;;;;;6.77;2.67;;;19.00;65.90;;;;;;5100268;29;20471;-49
2022/08/09 01:14:03;;;;;;;7.10;2.37;;;18.90;66.30;;;;;;5088128;28;20920;-48
2022/08/09 01:16:39;;;;;;;4.57;2.90;;;18.90;66.90;;;;;;5086388;29;20856;-49
2022/08/09 01:19:26;;;;;;;6.20;2.53;;;19.00;67.00;;;;;;5094313;28;20533;-49
2022/08/09 01:22:17;;;;;;;6.43;2.70;;;19.00;67.10;;;;;;5083548;29;20555;-49
2022/08/09 01:25:06;;;;;;;4.00;2.90;;;18.90;67.60;;;;;;5091788;28;20435;-50
2022/08/09 01:27:38;;;;;;;5.27;2.70;;;18.90;68.30;;;;;;5098512;28;20817;-50
2022/08/09 01:30:09;;;;;;;4.30;2.90;;;18.90;68.70;;;;;;5082428;28;20823;-50
2022/08/09 01:32:44;;;;;;;3.30;3.00;;;18.90;69.10;;;;;;5085656;28;20442;-49
2022/08/09 01:35:23;;;;;;;4.57;2.43;;;18.90;69.00;;;;;;5100917;28;20472;-49
2022/08/09 01:38:03;;;;;;;2.77;2.67;;;18.90;69.20;;;;;;5089347;28;20807;-49
2022/08/09 01:40:35;;;;;;;3.60;2.60;;;18.90;69.60;;;;;;5093583;29;20459;-50
2022/08/09 01:43:07;;;;;;;2.87;2.67;;;18.90;70.40;;;;;;5099989;28;20795;-50
2022/08/09 01:45:39;;;;;;;4.07;2.77;;;18.90;70.10;;;;;;5094136;29;20443;-49
2022/08/09 01:48:11;;;;;;;2.80;2.57;;;18.80;70.40;;;;;;5096610;28;20435;-52
2022/08/09 01:50:47;;;;;;;2.87;2.67;;;18.80;71.10;;;;;;5096509;29;20471;-51
2022/08/09 01:53:21;;;;;;;3.70;3.00;;;18.80;71.60;;;;;;5099469;29;20600;-50
2022/08/09 01:55:55;;;;;;;3.27;2.43;;;18.80;72.00;;;;;;5092944;29;20493;-48
2022/08/09 01:58:27;;;;;;;3.80;2.47;;;18.80;72.20;;;;;;5091847;28;20489;-49
2022/08/09 02:00:59;;;;;;;4.00;2.83;;;18.70;72.40;;;;;;5098307;28;20479;-48
2022/08/09 02:03:33;;;;;;;3.00;2.90;;;18.70;73.20;;;;;;5093546;28;20695;-51
2022/08/09 02:06:06;;;;;;;2.43;2.27;;;18.70;73.70;;;;;;5096066;28;20440;-50
2022/08/09 02:08:41;;;;;;;2.60;2.47;;;18.70;73.70;;;;;;5091647;29;20442;-50
2022/08/09 02:11:13;;;;;;;4.83;2.97;;;18.70;74.00;;;;;;5101761;29;20446;-51
2022/08/09 02:13:45;;;;;;;4.63;2.90;;;18.60;74.50;;;;;;5096473;29;20450;-51
2022/08/09 02:16:15;;;;;;;3.40;2.40;;;18.70;75.00;;;;;;5103078;28;20953;-50
2022/08/09 02:18:46;;;;;;;3.50;2.30;;;18.70;74.80;;;;;;5095426;28;20450;-50
2022/08/09 02:21:19;;;;;;;2.43;2.33;;;18.70;74.80;;;;;;5097740;28;20719;-50
2022/08/09 02:23:53;;;;;;;2.77;2.50;;;18.80;74.90;;;;;;5099672;28;20194;-49
2022/08/09 02:26:28;;;;;;;5.90;2.60;;;18.80;75.30;;;;;;5112826;28;20447;-49
2022/08/09 02:29:05;;;;;;;2.97;2.80;;;18.70;75.70;;;;;;5099304;29;20454;-51
2022/08/09 02:31:40;;;;;;;4.53;3.03;;;18.70;76.00;;;;;;5103783;29;20528;-50
2022/08/09 02:34:14;;;;;;;13.00;2.70;;;18.70;76.30;;;;;;5091252;28;20578;-49
2022/08/09 02:36:51;;;;;;;2.60;2.40;;;18.70;76.70;;;;;;5090252;29;20453;-50
2022/08/09 02:39:27;;;;;;;2.97;2.87;;;18.70;77.20;;;;;;5097935;28;20457;-50
2022/08/09 02:42:02;;;;;;;3.80;2.43;;;18.70;78.10;;;;;;5092340;29;20544;-49
2022/08/09 02:44:39;;;;;;;3.40;3.20;;;18.70;77.90;;;;;;5095281;29;20847;-51
2022/08/09 02:47:12;;;;;;;4.37;2.70;;;18.60;78.80;;;;;;5100285;29;20963;-49
2022/08/09 02:49:49;;;;;;;7.30;3.33;;;18.60;79.00;;;;;;5096158;29;20765;-49
2022/08/09 02:52:21;;;;;;;4.43;2.80;;;18.60;79.80;;;;;;5100294;29;20438;-49
2022/08/09 02:54:53;;;;;;;3.13;2.60;;;18.60;80.00;;;;;;5089560;28;20558;-50
2022/08/09 02:57:25;;;;;;;5.60;2.93;;;18.60;80.80;;;;;;5088317;28;20489;-49
2022/08/09 02:59:57;;;;;;;2.80;2.60;;;18.50;81.50;;;;;;5070474;28;20443;-50
2022/08/09 03:02:29;;;;;;;3.30;3.10;;;18.50;82.00;;;;;;5089175;28;20490;-51
2022/08/09 03:05:01;;;;;;;2.27;2.17;;;18.50;82.30;;;;;;5098470;28;20434;-49
2022/08/09 03:07:32;;;;;;;2.70;2.50;;;18.50;82.70;;;;;;5100605;29;20418;-49
2022/08/09 03:10:04;;;;;;;3.30;3.00;;;18.50;82.60;;;;;;5097368;28;21099;-49
2022/08/09 03:12:37;;;;;;;2.80;2.60;;;18.50;82.70;;;;;;5093899;29;20508;-49
2022/08/09 03:15:10;;;;;;;5.30;3.07;;;18.50;82.90;;;;;;5099634;28;20444;-51
2022/08/09 03:17:42;;;;;;;8.33;3.23;;;18.60;83.30;;;;;;5103238;28;20798;-49
2022/08/09 03:20:14;;;;;;;3.00;2.80;;;18.60;83.40;;;;;;5100051;28;20463;-52
2022/08/09 03:22:46;;;;;;;7.70;3.83;;;18.50;83.50;;;;;;5097892;28;20833;-48
2022/08/09 03:25:17;;;;;;;2.43;2.33;;;18.50;83.90;;;;;;5096521;29;20805;-51
2022/08/09 03:27:50;;;;;;;2.90;2.80;;;18.50;84.30;;;;;;5087760;28;20427;-49
2022/08/09 03:30:21;;;;;;;3.70;2.70;;;18.50;84.60;;;;;;5098140;29;21729;-50
2022/08/09 03:32:54;;;;;;;2.60;2.40;;;18.50;84.50;;;;;;5097649;29;20447;-51
2022/08/09 03:35:25;;;;;;;2.90;2.80;;;18.50;84.90;;;;;;5100127;28;20994;-50
2022/08/09 03:37:56;;;;;;;8.63;2.97;;;18.50;85.50;;;;;;5094612;28;20458;-50
2022/08/09 03:40:27;;;;;;;2.20;2.10;;;18.40;86.30;;;;;;5096502;29;20459;-49
2022/08/09 03:42:57;;;;;;;3.87;3.53;;;18.40;86.60;;;;;;5092004;29;20215;-50
2022/08/09 03:45:28;;;;;;;3.70;2.90;;;18.40;87.20;;;;;;5093369;29;20734;-50
2022/08/09 03:47:58;;;;;;;3.20;3.00;;;18.40;87.20;;;;;;5100904;29;20218;-51
2022/08/09 03:50:31;;;;;;;2.80;2.70;;;18.40;87.40;;;;;;5098108;29;20207;-49
2022/08/09 03:53:04;;;;;;;3.43;3.20;;;18.40;87.80;;;;;;5098258;29;20241;-50
2022/08/09 03:55:35;;;;;;;2.70;2.50;;;18.40;87.90;;;;;;5098417;28;20443;-50
2022/08/09 03:58:06;;;;;;;5.57;2.60;;;18.40;88.40;;;;;;5100194;29;20513;-49
2022/08/09 04:00:38;;;;;;;2.73;2.60;;;18.50;88.50;;;;;;5101682;29;20223;-51
2022/08/09 04:03:09;;;;;;;3.00;2.80;;;18.40;88.20;;;;;;5092694;29;20261;-49
2022/08/09 04:05:39;;;;;;;5.07;3.20;;;18.40;88.90;;;;;;5106511;28;20531;-50
2022/08/09 04:08:10;;;;;;;4.80;3.60;;;18.40;89.10;;;;;;5100108;28;20814;-52
2022/08/09 04:10:41;;;;;;;3.03;2.87;;;18.40;89.50;;;;;;5104013;28;20274;-50
2022/08/09 04:13:11;;;;;;;3.17;3.03;;;18.40;89.80;;;;;;5093595;29;20595;-50
2022/08/09 04:15:43;;;;;;;3.20;3.00;;;18.40;89.90;;;;;;5094369;29;20187;-49
2022/08/09 04:18:14;;;;;;;5.17;3.10;;;18.40;90.10;;;;;;5103009;28;20278;-50
2022/08/09 04:20:46;;;;;;;3.00;2.77;;;18.40;90.30;;;;;;5104589;29;20553;-52
2022/08/09 04:23:17;;;;;;;3.47;3.30;;;18.40;90.50;;;;;;5106241;29;23540;-51
2022/08/09 04:25:48;;;;;;;3.03;2.70;;;18.40;90.40;;;;;;5086893;29;20695;-50
2022/08/09 04:28:20;;;;;;;7.50;3.00;;;18.40;90.30;;;;;;5097431;28;20215;-49
2022/08/09 04:30:51;;;;;;;3.50;3.20;;;18.50;90.30;;;;;;5095476;28;20207;-50
2022/08/09 04:33:21;;;;;;;4.47;3.40;;;18.50;90.20;;;;;;5101443;29;20450;-52
2022/08/09 04:35:53;;;;;;;4.03;3.10;;;18.50;90.00;;;;;;5100268;28;20191;-49
2022/08/09 04:38:25;;;;;;;6.43;3.97;;;18.60;89.90;;;;;;5097687;28;20206;-51
2022/08/09 04:40:57;;;;;;;3.50;3.30;;;18.60;90.10;;;;;;5097578;28;20885;-51
2022/08/09 04:43:27;;;;;;;4.90;3.47;;;18.60;90.00;;;;;;5101143;29;20556;-49
2022/08/09 04:45:59;;;;;;;5.30;3.13;;;18.60;90.00;;;;;;5095703;28;20438;-51
2022/08/09 04:48:30;;;;;;;3.60;3.30;;;18.60;90.00;;;;;;5093791;29;20237;-50
2022/08/09 04:51:01;;;;;;;3.80;3.50;;;18.70;89.90;;;;;;5090989;29;20458;-47
2022/08/09 04:53:31;;;;;;;4.10;3.80;;;18.70;89.60;;;;;;5096063;28;20180;-48
2022/08/09 04:56:02;;;;;;;4.13;3.20;;;18.70;89.60;;;;;;5087036;28;20525;-49
2022/08/09 04:58:33;;;;;;;5.60;3.40;;;18.70;89.30;;;;;;5092213;28;20205;-50
2022/08/09 05:01:04;;;;;;;3.63;3.23;;;18.70;89.30;;;;;;5094503;28;20211;-50
2022/08/09 05:03:35;;;;;;;6.30;3.47;;;18.70;89.60;;;;;;5088656;28;20831;-52
2022/08/09 05:06:06;;;;;;;3.17;2.93;;;18.70;89.90;;;;;;5096789;29;20447;-49
2022/08/09 05:08:37;;;;;;;5.90;3.20;;;18.80;89.50;;;;;;5083563;28;20206;-50
2022/08/09 05:11:08;;;;;;;9.87;4.23;;;18.90;88.40;;;;;;5100370;28;20699;-49
2022/08/09 05:13:39;;;;;;;5.33;3.67;;;19.00;87.80;;;;;;5091189;28;20445;-49
2022/08/09 05:16:10;;;;;;;3.90;3.60;;;19.00;87.30;;;;;;5096281;28;20183;-49
2022/08/09 05:18:40;;;;;;;3.80;3.43;;;19.00;87.20;;;;;;5095899;28;20513;-49
2022/08/09 05:21:11;;;;;;;4.17;3.13;;;19.00;87.50;;;;;;5096327;28;20309;-49
2022/08/09 05:23:42;;;;;;;4.83;3.30;;;19.00;87.60;;;;;;5102793;28;20238;-50
2022/08/09 05:26:13;;;;;;;2.93;2.70;;;19.00;87.30;;;;;;5101198;29;20446;-49
2022/08/09 05:28:43;;;;;;;3.87;3.57;;;19.10;87.30;;;;;;5103113;28;20222;-48
2022/08/09 05:31:14;;;;;;;7.43;3.67;;;19.10;87.40;;;;;;5097534;29;20207;-49
2022/08/09 05:33:45;;;;;;;3.30;3.00;;;19.20;87.20;;;;;;5100802;28;20187;-49
2022/08/09 05:36:15;;;;;;;3.70;3.37;;;19.30;86.90;;;;;;5096147;28;20191;-49
2022/08/09 05:38:46;;;;;;;5.43;3.40;;;19.30;86.60;;;;;;5099138;28;20663;-51
2022/08/09 05:41:17;;;;;;;3.97;3.67;;;19.40;86.40;;;;;;5105862;28;20289;-49
2022/08/09 05:43:47;;;;;;;10.33;4.10;;;19.60;85.80;;;;;;5100529;29;20206;-50
2022/08/09 05:46:18;;;;;;;4.40;3.87;;;19.80;84.10;;;;;;5109228;28;20193;-50
2022/08/09 05:48:49;;;;;;;4.00;3.70;;;20.00;82.40;;;;;;5095515;29;20187;-48
2022/08/09 05:51:19;;;;;;;3.50;3.20;;;20.10;82.10;;;;;;5099414;28;20684;-50
2022/08/09 05:53:50;;;;;;;5.20;3.60;;;20.10;81.60;;;;;;5096116;29;20190;-49
2022/08/09 05:56:21;;;;;;;6.07;3.53;;;20.10;81.40;;;;;;5102151;28;20182;-49
2022/08/09 05:58:56;;;;;;;3.00;2.73;;;20.20;81.20;;;;;;5098733;28;20437;-48
2022/08/09 06:01:28;;;;;;;6.33;3.00;;;20.50;80.40;;;;;;5096501;29;20218;-53
2022/08/09 06:03:58;;;;;;;3.50;3.30;;;20.60;78.90;;;;;;5098480;29;20880;-48
2022/08/09 06:06:29;;;;;;;3.77;3.20;;;20.80;77.30;;;;;;5094256;28;20526;-49
2022/08/09 06:09:00;;;;;;;10.90;3.90;;;20.90;76.40;;;;;;5099263;28;20580;-49
2022/08/09 06:11:30;;;;;;;4.87;3.33;;;20.90;75.60;;;;;;5091777;29;20250;-48
2022/08/09 06:14:01;;;;;;;15.63;4.13;;;20.90;73.70;;;;;;5087531;29;20183;-49
2022/08/09 06:16:32;;;;;;;8.90;4.07;;;21.30;72.90;;;;;;5096354;29;20655;-50
2022/08/09 06:19:02;;;;;;;4.80;3.20;;;21.70;69.80;;;;;;5094955;29;20179;-48
2022/08/09 06:21:33;;;;;;;6.00;3.27;;;21.60;68.50;;;;;;5080571;28;20207;-49
2022/08/09 06:24:04;;;;;;;8.43;3.60;;;21.60;68.70;;;;;;5097488;29;20262;-51
2022/08/09 06:26:37;;;;;;;7.20;3.80;;;21.80;67.30;;;;;;5097774;28;20186;-50
2022/08/09 06:29:08;;;;;;;7.30;2.87;;;22.00;65.60;;;;;;5095188;29;20205;-49
2022/08/09 06:31:39;;;;;;;6.77;3.00;;;22.10;64.00;;;;;;5096475;28;20450;-49
2022/08/09 06:34:10;;;;;;;6.87;3.00;;;22.00;63.70;;;;;;5097538;29;20433;-49
2022/08/09 06:36:41;;;;;;;3.40;3.20;;;22.00;62.90;;;;;;5097422;29;20474;-48
2022/08/09 06:39:12;;;;;;;6.10;3.57;;;22.50;63.70;;;;;;5101634;28;20195;-52
2022/08/09 06:41:42;;;;;;;10.60;3.37;;;23.20;59.20;;;;;;5092175;29;20203;-50
2022/08/09 06:44:13;;;;;;;6.10;3.53;;;23.20;58.60;;;;;;5095859;29;20435;-49
2022/08/09 06:46:44;;;;;;;3.10;2.93;;;23.10;58.50;;;;;;5098014;28;20195;-48
2022/08/09 06:49:15;;;;;;;3.00;2.80;;;23.90;57.40;;;;;;5098473;29;20191;-51
2022/08/09 06:51:45;;;;;;;3.17;2.87;;;24.50;53.60;;;;;;5090231;28;20862;-49
2022/08/09 06:54:16;;;;;;;3.00;2.80;;;24.50;52.90;;;;;;5106947;29;20190;-49
2022/08/09 06:56:47;;;;;;;4.07;3.13;;;25.40;51.40;;;;;;5093877;29;20766;-48
2022/08/09 06:59:17;;;;;;;4.80;3.13;;;25.90;49.60;;;;;;5109806;28;20187;-48
2022/08/09 07:01:48;;;;;;;2.27;2.17;;;26.10;48.80;;;;;;5092816;28;21136;-48
2022/08/09 07:04:18;;;;;;;18.50;2.70;;;25.90;48.60;;;;;;5103238;29;20551;-50
2022/08/09 07:06:49;;;;;;;5.03;2.40;;;25.90;47.80;;;;;;5095485;29;20226;-51
2022/08/09 07:09:20;;;;;;;4.87;2.67;;;27.00;46.30;;;;;;5100950;29;20536;-48
2022/08/09 07:11:51;;;;;;;4.23;2.67;;;29.10;41.60;;;;;;5097587;29;20203;-50
2022/08/09 07:14:21;;;;;;;5.30;2.50;;;29.30;39.70;;;;;;5101044;29;20538;-49
2022/08/09 07:16:52;;;;;;;1.97;1.87;;;28.90;39.40;;;;;;5101071;28;20194;-50
2022/08/09 07:19:23;;;;;;;7.00;2.67;;;29.00;39.60;;;;;;5100100;28;20195;-50
2022/08/09 07:21:53;;;;;;;3.73;2.40;;;29.00;38.70;;;;;;5102285;29;20202;-49
2022/08/09 07:24:25;;;;;;;4.80;2.07;;;29.10;38.30;;;;;;5095094;29;20188;-52
2022/08/09 07:26:57;;;;;;;7.80;2.60;;;28.40;39.40;;;;;;5102103;29;20251;-48
2022/08/09 07:29:28;;;;;;;4.60;1.80;;;28.20;39.80;;;;;;5104933;29;20481;-48
2022/08/09 07:32:00;;;;;;;11.90;2.13;;;29.00;38.60;;;;;;5094183;28;20470;-48
2022/08/09 07:34:30;;;;;;;2.50;2.00;;;30.10;36.60;;;;;;5105982;29;20201;-50
2022/08/09 07:37:01;;;;;;;2.43;2.33;;;30.80;34.80;;;;;;5102003;28;20477;-50
2022/08/09 07:39:31;;;;;;;2.00;1.90;;;30.70;35.00;;;;;;5097938;29;20707;-48
2022/08/09 07:42:02;;;;;;;2.40;2.30;;;30.10;35.20;;;;;;5108021;28;20297;-50
2022/08/09 07:44:33;;;;;;;4.23;2.67;;;28.90;36.40;;;;;;5109456;29;20218;-50
2022/08/09 07:47:04;;;;;;;2.20;2.10;;;28.80;37.60;;;;;;5104257;29;20201;-49
2022/08/09 07:49:34;;;;;;;3.80;2.07;;;30.40;35.00;;;;;;5104728;29;20537;-50
2022/08/09 07:52:05;;;;;;;2.57;2.37;;;31.80;33.60;;;;;;5100805;28;20253;-48
2022/08/09 07:54:37;;;;;;;2.67;2.47;;;32.60;31.10;;;;;;5101339;28;20267;-49
2022/08/09 07:57:07;;;;;;;2.47;2.27;;;31.90;31.30;;;;;;5101030;28;20276;-49
2022/08/09 07:59:38;;;;;;;6.50;2.67;;;32.10;31.70;;;;;;5074709;28;20439;-49
2022/08/09 08:02:09;;;;;;;8.50;2.60;;;32.90;30.70;;;;;;5097584;28;20728;-50
2022/08/09 08:04:40;;;;;;;2.40;1.93;;;33.80;29.50;;;;;;5097781;29;20269;-49
2022/08/09 08:07:11;;;;;;;7.13;2.03;;;33.70;29.20;;;;;;5096261;28;20183;-49
2022/08/09 08:09:42;;;;;;;1.80;1.70;;;33.70;29.30;;;;;;5109629;29;21012;-49
2022/08/09 08:12:12;;;;;;;3.10;2.13;;;33.80;29.40;;;;;;5101396;28;20192;-51
2022/08/09 08:14:43;;;;;;;1.73;1.73;;;33.60;28.70;;;;;;5106477;29;20675;-52
2022/08/09 08:17:13;;;;;;;2.53;2.33;;;33.90;29.00;;;;;;5103423;28;20278;-49
2022/08/09 08:19:44;;;;;;;5.43;2.67;;;34.50;28.10;;;;;;5095461;29;20190;-49
2022/08/09 08:22:14;;;;;;;11.70;1.80;;;34.40;28.10;;;;;;5100793;29;20240;-49
2022/08/09 08:24:46;;;;;;;3.23;2.07;;;34.00;28.40;;;;;;5102165;28;20198;-48
2022/08/09 08:27:17;;;;;;;1.73;1.40;;;33.90;28.70;;;;;;5100627;29;20232;-50
2022/08/09 08:29:48;;;;;;;2.20;1.90;;;34.80;28.30;;;;;;5101192;28;20450;-49
2022/08/09 08:32:21;;;;;;;1.77;1.70;;;35.50;26.90;;;;;;5110739;28;20711;-50
2022/08/09 08:34:53;;;;;;;6.23;2.00;;;34.30;27.40;;;;;;5090565;29;20635;-49
2022/08/09 08:37:23;;;;;;;5.20;2.27;;;33.40;28.70;;;;;;5101003;29;20449;-50
2022/08/09 08:39:54;;;;;;;2.03;1.80;;;33.80;28.60;;;;;;5093362;28;20927;-51
2022/08/09 08:42:26;;;;;;;2.47;2.33;;;34.20;27.90;;;;;;5099155;28;20292;-49
2022/08/09 08:44:58;;;;;;;1.40;1.40;;;34.30;27.90;;;;;;5082851;28;20205;-48
2022/08/09 08:47:29;;;;;;;3.03;1.67;;;33.80;27.80;;;;;;5083384;28;20462;-49
2022/08/09 08:50:00;;;;;;;6.10;2.47;;;32.80;29.00;;;;;;5097837;29;20462;-49
2022/08/09 08:52:32;;;;;;;3.47;1.77;;;32.30;29.40;;;;;;5100998;28;20502;-46
2022/08/09 08:55:03;;;;;;;2.03;1.83;;;32.10;30.40;;;;;;5098854;29;20533;-49
2022/08/09 08:57:34;;;;;;;2.07;1.80;;;32.40;29.80;;;;;;5092491;28;20447;-51
2022/08/09 09:00:09;;;;;;;1.30;1.30;;;31.60;30.00;;;;;;5101167;28;20465;-51
2022/08/09 09:02:40;;;;;;;3.27;1.67;;;31.10;30.10;;;;;;5090556;28;20217;-51
2022/08/09 09:05:12;;;;;;;1.80;1.70;;;30.40;31.40;;;;;;5101680;29;21016;-49
2022/08/09 09:07:49;;;;;;;1.40;1.30;;;29.90;32.10;;;;;;5102049;28;20534;-51
2022/08/09 09:10:22;;;;;;;10.90;1.90;;;28.90;32.80;;;;;;5088838;29;20930;-52
2022/08/09 09:12:53;;;;;;;1.97;1.87;;;27.60;34.50;;;;;;5091737;29;20891;-50
2022/08/09 09:15:24;;;;;;;2.30;1.97;;;26.60;35.80;;;;;;5095443;28;20506;-50
2022/08/09 09:17:54;;;;;;;2.00;1.63;;;26.10;37.10;;;;;;5099815;29;20468;-51
2022/08/09 09:20:25;;;;;;;4.30;1.80;;;25.80;37.40;;;;;;5098963;29;20215;-52
2022/08/09 09:22:58;;;;;;;5.43;1.90;;;25.40;38.10;;;;;;5093663;28;20214;-50
2022/08/09 09:25:40;;;;;;;3.97;2.67;;;25.30;39.10;;;;;;5093701;28;20571;-50
2022/08/09 09:28:13;;;;;;;2.83;1.73;;;25.50;38.90;;;;;;5093022;29;20436;-51
2022/08/09 09:30:55;;;;;;;2.20;2.10;;;25.50;38.20;;;;;;5094775;28;20454;-50
2022/08/09 09:33:32;;;;;;;2.83;1.40;;;25.50;38.30;;;;;;5093750;28;20442;-51
2022/08/09 09:36:06;;;;;;;8.43;2.27;;;25.40;38.70;;;;;;5096579;28;20470;-49
2022/08/09 09:38:48;;;;;;;2.10;1.70;;;25.30;39.30;;;;;;5092159;28;20449;-51
2022/08/09 09:41:22;;;;;;;3.53;1.50;;;25.30;38.90;;;;;;5093287;29;20467;-51
2022/08/09 09:43:55;;;;;;;4.63;2.00;;;25.40;39.00;;;;;;5094332;29;20485;-51
2022/08/09 09:46:37;;;;;;;1.80;1.53;;;25.50;39.30;;;;;;5084276;28;20459;-51
2022/08/09 09:49:10;;;;;;;2.20;1.40;;;25.60;39.20;;;;;;5098606;28;20568;-52
2022/08/09 09:51:41;;;;;;;5.30;1.50;;;25.70;38.90;;;;;;5096749;28;20831;-50
2022/08/09 09:54:14;;;;;;;33.10;2.50;;;25.70;38.80;;;;;;5099645;29;20439;-49
2022/08/09 09:56:47;;;;;;;2.00;1.90;;;25.50;39.30;;;;;;5100230;28;20180;-49
2022/08/09 09:59:32;;;;;;;2.70;2.33;;;25.50;38.80;;;;;;5094745;29;20798;-50
2022/08/09 10:02:02;;;;;;;1.50;1.50;;;25.60;38.90;;;;;;5089125;29;20592;-51
2022/08/09 10:04:33;;;;;;;3.23;1.87;;;25.60;38.70;;;;;;5105030;28;20458;-50
2022/08/09 10:07:04;;;;;;;3.00;2.30;;;25.80;38.90;;;;;;5075800;28;20252;-53
2022/08/09 10:09:46;;;;;;;2.17;1.97;;;25.80;38.70;;;;;;5094827;28;20190;-51
2022/08/09 10:12:25;;;;;;;1.90;1.80;;;25.80;38.30;;;;;;5092652;28;20443;-52
2022/08/09 10:15:11;;;;;;;2.37;1.90;;;25.80;38.30;;;;;;5106832;28;20983;-52
2022/08/09 10:17:44;;;;;;;2.10;1.60;;;25.70;38.40;;;;;;5104063;28;20450;-50
2022/08/09 10:20:20;;;;;;;2.20;2.10;;;25.70;39.10;;;;;;5094442;28;21045;-51
2022/08/09 10:22:54;;;;;;;2.10;1.57;;;25.70;38.70;;;;;;5096545;28;20462;-50
2022/08/09 10:25:25;;;;;;;2.53;1.57;;;25.70;38.50;;;;;;5103335;29;20452;-51
2022/08/09 10:27:56;;;;;;;1.70;1.70;;;25.60;38.30;;;;;;5104605;28;20522;-52
2022/08/09 10:30:26;;;;;;;2.40;2.20;;;25.50;38.90;;;;;;5099196;28;20203;-52
2022/08/09 10:32:59;;;;;;;2.23;2.07;;;25.60;38.70;;;;;;5096636;28;20464;-52
2022/08/09 10:35:34;;;;;;;1.73;1.73;;;25.50;38.80;;;;;;5107870;28;20308;-52
2022/08/09 10:38:05;;;;;;;2.03;2.03;;;25.60;38.50;;;;;;5096730;28;20438;-54
2022/08/09 10:40:36;;;;;;;1.97;1.87;;;25.70;38.60;;;;;;5098563;28;20524;-53
2022/08/09 10:43:07;;;;;;;2.37;1.80;;;25.60;38.40;;;;;;5098544;28;20908;-51
2022/08/09 10:45:48;;;;;;;2.10;2.00;;;25.60;38.50;;;;;;5094479;28;20451;-52
2022/08/09 10:48:29;;;;;;;1.97;1.80;;;25.60;38.70;;;;;;5093722;28;20199;-53
2022/08/09 10:51:13;;;;;;;2.20;2.10;;;25.70;38.70;;;;;;5098941;29;20490;-52
2022/08/09 10:54:04;;;;;;;3.20;2.03;;;25.80;38.80;;;;;;5094836;28;20438;-52
2022/08/09 10:56:37;;;;;;;1.60;1.60;;;26.10;38.30;;;;;;5093713;28;20467;-53
2022/08/09 10:59:28;;;;;;;2.40;1.93;;;26.20;38.10;;;;;;5105963;28;20447;-53
2022/08/09 11:01:59;;;;;;;1.73;1.67;;;26.10;37.90;;;;;;5097611;28;20995;-51
2022/08/09 11:04:30;;;;;;;1.77;1.67;;;26.20;38.40;;;;;;5099599;28;20439;-51
2022/08/09 11:07:00;;;;;;;16.10;2.17;;;26.20;38.00;;;;;;5104443;28;20187;-53
2022/08/09 11:09:50;;;;;;;3.10;2.43;;;26.20;37.90;;;;;;5097025;28;20447;-52
2022/08/09 11:12:24;;;;;;;2.80;2.60;;;26.20;37.50;;;;;;5100451;28;20186;-51
2022/08/09 11:15:18;;;;;;;11.30;2.50;;;26.20;38.10;;;;;;5114539;28;20446;-52
2022/08/09 11:17:51;;;;;;;2.60;2.50;;;26.20;37.60;;;;;;5099243;28;20454;-51
2022/08/09 11:20:46;;;;;;;2.97;1.97;;;26.10;37.40;;;;;;5096124;28;20451;-52
2022/08/09 11:23:17;;;;;;;4.67;2.83;;;25.90;37.50;;;;;;5101720;29;20470;-52
2022/08/09 11:25:47;;;;;;;2.10;2.00;;;25.90;37.90;;;;;;5103014;28;21049;-54
2022/08/09 11:28:38;;;;;;;1.63;1.63;;;26.10;38.10;;;;;;5098874;29;20703;-51
2022/08/09 11:31:38;;;;;;;3.73;1.60;;;26.20;37.50;;;;;;5081998;28;20199;-50
2022/08/09 11:34:19;;;;;;;1.50;1.47;;;26.20;37.90;;;;;;5092822;28;20498;-51
2022/08/09 11:36:51;;;;;;;2.03;1.90;;;26.40;37.00;;;;;;5097983;29;20463;-52
2022/08/09 11:39:22;;;;;;;1.73;1.50;;;26.70;37.30;;;;;;5097208;28;20445;-52
2022/08/09 11:41:54;;;;;;;7.93;2.27;;;27.00;36.90;;;;;;5102260;28;20471;-52
2022/08/09 11:44:44;;;;;;;3.03;1.87;;;27.10;36.50;;;;;;5098842;28;20435;-52
2022/08/09 11:47:15;;;;;;;4.97;3.10;;;27.10;36.40;;;;;;5101535;28;20487;-51
2022/08/09 11:50:00;;;;;;;2.77;2.20;;;27.00;36.50;;;;;;5101728;28;20442;-51
2022/08/09 11:52:34;;;;;;;1.80;1.70;;;27.00;36.10;;;;;;5097382;29;20178;-52
2022/08/09 11:55:34;;;;;;;1.40;1.40;;;27.10;35.80;;;;;;5092857;28;20440;-53
2022/08/09 11:58:27;;;;;;;4.00;1.80;;;27.40;35.80;;;;;;5093093;28;20807;-51
2022/08/09 12:01:02;;;;;;;2.60;1.90;;;27.90;35.50;;;;;;5098211;28;20526;-52
2022/08/09 12:03:34;;;;;;;2.30;1.60;;;28.10;35.40;;;;;;5106206;28;20584;-53
2022/08/09 12:06:15;;;;;;;2.27;1.63;;;28.30;35.40;;;;;;5096212;29;20435;-51
2022/08/09 12:08:50;;;;;;;6.60;2.73;;;28.50;34.20;;;;;;5096164;28;20458;-53
2022/08/09 12:11:24;;;;;;;1.97;1.87;;;28.40;34.50;;;;;;5093460;29;20458;-51
2022/08/09 12:14:04;;;;;;;3.13;1.97;;;28.30;34.60;;;;;;5093950;29;20457;-50
2022/08/09 12:16:41;;;;;;;1.53;1.43;;;28.20;34.50;;;;;;5102482;28;20450;-52
2022/08/09 12:19:12;;;;;;;2.30;2.20;;;27.70;35.10;;;;;;5098199;28;20444;-52
2022/08/09 12:21:47;;;;;;;9.10;1.70;;;27.40;35.40;;;;;;5103680;29;20470;-53
2022/08/09 12:24:22;;;;;;;4.23;2.70;;;27.20;36.10;;;;;;5098621;29;20175;-54
2022/08/09 12:26:55;;;;;;;2.00;1.90;;;26.80;36.40;;;;;;5102054;29;20465;-54
2022/08/09 12:29:30;;;;;;;2.00;1.80;;;26.60;36.70;;;;;;5085657;28;20450;-55
2022/08/09 12:32:07;;;;;;;3.33;1.47;;;26.50;36.90;;;;;;5101258;28;20467;-51
2022/08/09 12:34:40;;;;;;;2.10;2.00;;;26.50;36.90;;;;;;5104588;29;20433;-50
2022/08/09 12:37:10;;;;;;;2.73;1.93;;;26.60;36.90;;;;;;5093480;28;20482;-50
2022/08/09 12:39:41;;;;;;;1.73;1.73;;;26.60;36.60;;;;;;5099006;29;20470;-52
2022/08/09 12:42:13;;;;;;;2.03;1.93;;;26.60;35.90;;;;;;5099828;29;20207;-57
2022/08/09 12:44:44;;;;;;;1.97;1.87;;;26.60;36.10;;;;;;5096777;28;20171;-53
2022/08/09 12:47:16;;;;;;;2.40;2.00;;;26.60;35.80;;;;;;5091682;29;20450;-53
2022/08/09 12:50:15;;;;;;;4.33;1.90;;;26.70;36.30;;;;;;5086227;28;20255;-52
2022/08/09 12:52:39;;;;;;;2.20;2.00;;;26.90;36.10;;;;;;5098155;28;20531;-53
2022/08/09 12:55:10;;;;;;;2.53;1.70;;;27.30;35.80;;;;;;5090702;29;20834;-51
2022/08/09 12:57:41;;;;;;;1.90;1.80;;;27.70;35.50;;;;;;5099042;29;20811;-52
2022/08/09 13:00:17;;;;;;;4.90;1.53;;;27.80;35.00;;;;;;5118010;28;20561;-50
2022/08/09 13:02:59;;;;;;;5.90;1.63;;;27.70;35.00;;;;;;5100821;28;20476;-50
2022/08/09 13:05:43;;;;;;;1.60;1.50;;;27.90;34.90;;;;;;5095576;28;20445;-49
2022/08/09 13:08:15;;;;;;;1.90;1.80;;;27.80;34.40;;;;;;5100989;28;20530;-52
2022/08/09 13:10:48;;;;;;;1.47;1.47;;;27.80;34.60;;;;;;5094808;29;20522;-50
2022/08/09 13:13:29;;;;;;;1.77;1.70;;;27.70;34.00;;;;;;5096432;28;20455;-51
2022/08/09 13:16:05;;;;;;;1.63;1.63;;;27.60;34.40;;;;;;5105892;28;20447;-51
2022/08/09 13:18:46;;;;;;;1.67;1.57;;;27.50;34.70;;;;;;5094001;28;20450;-54